createdAt,value
2023-01-19T00:02:18.252Z,59.19
2023-01-19T00:07:22.275Z,59.66
2023-01-19T00:12:25.124Z,59.42
2023-01-19T00:17:27.942Z,59.90
2023-01-19T00:22:32.076Z,59.95
2023-01-19T00:27:35.039Z,60.14
2023-01-19T00:32:37.856Z,60.15
2023-01-19T00:38:07.315Z,59.86
2023-01-19T00:43:10.211Z,60.18
2023-01-19T00:48:12.953Z,60.09
2023-01-19T00:53:17.055Z,59.82
2023-01-19T00:58:19.782Z,60.22
2023-01-19T01:03:28.074Z,60.23
2023-01-19T01:08:32.380Z,60.03
2023-01-19T01:13:35.093Z,60.67
2023-01-19T01:18:38.013Z,60.69
2023-01-19T01:23:42.077Z,60.78
2023-01-19T01:28:44.819Z,60.93
2023-01-19T01:33:50.576Z,60.64
2023-01-19T01:38:54.597Z,60.97
2023-01-19T01:43:59.985Z,60.94
2023-01-19T01:49:06.430Z,60.82
2023-01-19T01:54:16.781Z,60.95
2023-01-19T01:59:26.586Z,60.97
2023-01-19T02:04:31.346Z,60.61
2023-01-19T02:09:55.019Z,61.00
2023-01-19T02:15:03.639Z,60.94
2023-01-19T02:20:10.356Z,60.89
2023-01-19T02:25:14.833Z,61.05
2023-01-19T02:30:18.126Z,60.91
2023-01-19T02:35:21.606Z,60.66
2023-01-19T02:41:14.144Z,60.64
2023-01-19T02:46:40.176Z,60.77
2023-01-19T03:11:05.797Z,60.80
2023-01-19T03:16:37.311Z,60.83
2023-01-19T03:21:45.148Z,60.39
2023-01-19T03:26:52.934Z,60.56
2023-01-19T03:32:22.132Z,60.19
2023-01-19T03:37:25.414Z,60.56
2023-01-19T03:48:42.071Z,60.82
2023-01-19T03:53:57.164Z,60.59
2023-01-19T03:59:40.669Z,60.83
2023-01-19T04:04:51.567Z,61.21
2023-01-19T04:10:21.889Z,61.26
2023-01-19T04:15:58.836Z,61.23
2023-01-19T04:28:14.147Z,61.54
2023-01-19T04:33:23.507Z,61.07
2023-01-19T04:38:28.628Z,61.20
2023-01-19T04:43:31.373Z,60.89
2023-01-19T04:48:35.586Z,60.78
2023-01-19T04:53:58.217Z,60.80
2023-01-19T04:59:52.138Z,60.96
2023-01-19T05:05:02.030Z,61.11
2023-01-19T05:10:08.184Z,61.23
2023-01-19T05:15:12.204Z,61.25
2023-01-19T05:20:55.367Z,61.32
2023-01-19T05:26:06.366Z,61.01
2023-01-19T05:31:18.561Z,61.31
2023-01-19T05:42:50.097Z,61.29
2023-01-19T05:47:52.851Z,61.15
2023-01-19T05:52:55.744Z,61.45
2023-01-19T06:09:17.997Z,61.58
2023-01-19T06:20:00.244Z,61.45
2023-01-19T06:25:06.100Z,61.33
2023-01-19T06:30:13.855Z,61.42
2023-01-19T06:35:46.688Z,61.24
2023-01-19T06:40:54.252Z,61.78
2023-01-19T06:46:02.979Z,61.39
2023-01-19T06:51:06.973Z,61.83
2023-01-19T06:56:44.600Z,61.48
2023-01-19T07:02:32.860Z,61.18
2023-01-19T07:07:39.717Z,61.50
2023-01-19T07:12:50.048Z,61.45
2023-01-19T07:17:53.074Z,61.41
2023-01-19T07:23:23.524Z,61.48
2023-01-19T07:33:51.744Z,61.51
2023-01-19T07:39:33.015Z,61.55
2023-01-19T07:45:01.302Z,61.86
2023-01-19T07:50:31.969Z,61.97
2023-01-19T07:55:53.453Z,61.77
2023-01-19T08:01:20.099Z,61.69
2023-01-19T08:06:50.028Z,61.80
2023-01-19T08:12:13.657Z,61.96
2023-01-19T08:17:23.876Z,61.73
2023-01-19T08:23:07.607Z,61.84
2023-01-19T08:28:27.889Z,61.58
2023-01-19T08:33:49.316Z,61.92
2023-01-19T08:44:34.335Z,61.82
2023-01-19T08:49:37.013Z,61.93
2023-01-19T08:54:39.923Z,61.90
2023-01-19T09:00:38.609Z,61.83
2023-01-19T09:06:34.129Z,62.12
2023-01-19T09:11:36.913Z,61.88
2023-01-19T09:16:39.690Z,61.15
2023-01-19T09:21:44.959Z,60.40
2023-01-19T09:27:06.943Z,59.04
2023-01-19T09:33:11.020Z,58.31
2023-01-19T09:38:42.327Z,57.80
2023-01-19T09:43:54.689Z,57.44
2023-01-19T09:48:58.454Z,57.55
2023-01-19T09:54:39.198Z,57.32
2023-01-19T09:59:49.325Z,57.20
2023-01-19T10:05:02.524Z,57.15
2023-01-19T10:10:30.963Z,57.22
2023-01-19T10:15:53.547Z,56.94
2023-01-19T10:21:05.790Z,56.76
2023-01-19T10:26:13.276Z,57.11
2023-01-19T10:31:21.060Z,56.92
2023-01-19T10:36:28.738Z,57.04
2023-01-19T10:41:40.736Z,56.92
2023-01-19T10:46:46.500Z,57.00
2023-01-19T10:57:37.145Z,55.69
2023-01-19T11:02:51.107Z,55.09
2023-01-19T11:08:03.544Z,54.83
2023-01-19T11:13:12.557Z,54.46
2023-01-19T11:18:25.269Z,53.93
2023-01-19T11:23:29.652Z,53.60
2023-01-19T11:28:34.653Z,53.16
2023-01-19T11:33:43.280Z,53.31
2023-01-19T11:38:48.988Z,53.48
2023-01-19T11:43:54.008Z,53.04
2023-01-19T11:49:02.206Z,52.59
2023-01-19T11:54:16.771Z,52.50
2023-01-19T11:59:19.916Z,52.52
2023-01-19T12:04:27.541Z,52.69
2023-01-19T12:09:34.104Z,52.55
2023-01-19T12:14:41.250Z,52.31
2023-01-19T12:20:01.541Z,51.83
2023-01-19T12:25:09.163Z,52.05
2023-01-19T12:30:20.744Z,51.99
2023-01-19T12:35:57.287Z,51.99
2023-01-19T12:41:26.460Z,52.04
2023-01-19T12:46:33.413Z,51.90
2023-01-19T12:51:47.023Z,51.41
2023-01-19T12:57:15.050Z,50.93
2023-01-19T13:02:45.682Z,51.01
2023-01-19T13:08:17.165Z,51.34
2023-01-19T13:13:22.634Z,51.54
2023-01-19T13:18:27.365Z,51.76
2023-01-19T13:23:55.626Z,50.95
2023-01-19T13:28:59.767Z,50.55
2023-01-19T13:34:03.375Z,50.84
2023-01-19T13:39:09.180Z,50.83
2023-01-19T13:44:15.747Z,51.14
2023-01-19T13:49:21.140Z,51.18
2023-01-19T13:54:25.970Z,50.95
2023-01-19T13:59:28.737Z,50.45
2023-01-19T14:04:33.317Z,50.45
2023-01-19T14:09:37.372Z,50.58
2023-01-19T14:14:44.432Z,50.52
2023-01-19T14:19:50.556Z,50.69
2023-01-19T14:24:54.719Z,50.22
2023-01-19T14:30:16.142Z,50.12
2023-01-19T14:35:25.552Z,50.09
2023-01-19T14:40:30.812Z,50.31
2023-01-19T14:45:36.389Z,50.37
2023-01-19T14:50:41.564Z,50.36
2023-01-19T14:55:49.984Z,50.14
2023-01-19T15:01:05.000Z,49.88
2023-01-19T15:06:07.885Z,49.90
2023-01-19T15:11:13.845Z,50.27
2023-01-19T15:16:16.975Z,50.29
2023-01-19T15:21:23.150Z,50.21
2023-01-19T15:26:27.834Z,50.09
2023-01-19T15:31:30.818Z,49.70
2023-01-19T15:36:33.565Z,49.94
2023-01-19T15:41:39.856Z,49.78
2023-01-19T15:46:42.606Z,49.81
2023-01-19T15:51:45.573Z,49.94
2023-01-19T15:56:49.793Z,49.91
2023-01-19T16:01:52.883Z,49.78
2023-01-19T16:06:55.837Z,49.67
2023-01-19T16:12:00.129Z,49.75
2023-01-19T16:17:03.009Z,49.84
2023-01-19T16:22:05.916Z,50.01
2023-01-19T16:27:10.086Z,49.90
2023-01-19T16:32:12.857Z,49.90
2023-01-19T16:37:15.671Z,49.46
2023-01-19T16:42:19.968Z,49.65
2023-01-19T16:47:22.781Z,49.63
2023-01-19T16:52:25.492Z,49.80
2023-01-19T16:57:29.925Z,50.19
2023-01-19T17:02:32.759Z,49.50
2023-01-19T17:07:35.526Z,49.49
2023-01-19T17:12:39.606Z,49.39
2023-01-19T17:17:42.330Z,49.46
2023-01-19T17:22:45.106Z,49.89
2023-01-19T17:27:49.203Z,49.58
2023-01-19T17:32:51.905Z,49.62
2023-01-19T17:37:55.951Z,49.24
2023-01-19T17:43:00.012Z,49.40
2023-01-19T17:48:02.964Z,49.45
2023-01-19T17:53:24.326Z,49.44
2023-01-19T17:58:30.833Z,49.49
2023-01-19T18:03:33.578Z,49.46
2023-01-19T18:08:39.287Z,49.24
2023-01-19T18:13:45.611Z,49.35
2023-01-19T18:18:49.588Z,49.45
2023-01-19T18:23:52.622Z,49.35
2023-01-19T18:28:57.366Z,49.36
2023-01-19T18:34:00.277Z,49.32
2023-01-19T18:39:03.173Z,49.10
2023-01-19T18:44:07.343Z,49.37
2023-01-19T18:49:10.454Z,49.46
2023-01-19T18:54:13.204Z,49.34
2023-01-19T18:59:17.302Z,49.56
2023-01-19T19:04:20.149Z,49.36
2023-01-19T19:09:22.891Z,49.10
2023-01-19T19:14:27.072Z,49.30
2023-01-19T19:19:29.795Z,49.33
2023-01-19T19:24:32.678Z,49.25
2023-01-19T19:29:36.797Z,49.39
2023-01-19T19:34:39.635Z,49.21
2023-01-19T19:40:08.417Z,48.95
2023-01-19T19:45:14.798Z,49.08
2023-01-19T19:50:18.129Z,49.00
2023-01-19T19:55:20.927Z,48.85
2023-01-19T20:00:25.066Z,49.13
2023-01-19T20:05:27.825Z,49.06
2023-01-19T20:10:32.010Z,49.15
2023-01-19T20:15:38.763Z,49.21
2023-01-19T20:20:41.567Z,49.06
2023-01-19T20:25:44.297Z,49.21
2023-01-19T20:30:48.378Z,49.93
2023-01-19T20:35:52.041Z,49.45
2023-01-19T20:40:54.802Z,49.50
2023-01-19T20:45:59.668Z,49.50
2023-01-19T20:51:03.344Z,49.20
2023-01-19T20:56:06.482Z,49.11
2023-01-19T21:01:15.736Z,48.96
2023-01-19T21:06:19.419Z,48.77
2023-01-19T21:11:23.952Z,49.12
2023-01-19T21:16:29.484Z,49.01
2023-01-19T21:21:32.382Z,49.20
2023-01-19T21:26:35.988Z,49.16
2023-01-19T21:31:40.107Z,48.84
2023-01-19T21:36:44.578Z,49.02
2023-01-19T21:41:47.319Z,48.54
2023-01-19T21:46:51.484Z,48.76
2023-01-19T21:51:55.208Z,48.49
2023-01-19T21:56:58.021Z,48.71
2023-01-19T22:02:02.287Z,48.72
2023-01-19T22:07:05.042Z,48.74
2023-01-19T22:12:09.860Z,48.78
2023-01-19T22:17:14.022Z,48.61
2023-01-19T22:22:16.789Z,48.39
2023-01-19T22:27:19.457Z,48.44
2023-01-19T22:32:23.524Z,48.96
2023-01-19T22:37:26.246Z,48.90
2023-01-19T22:42:28.946Z,49.26
2023-01-19T22:47:33.045Z,49.70
2023-01-19T22:52:35.737Z,49.85
2023-01-19T22:57:39.535Z,50.14
2023-01-19T23:02:43.812Z,50.45
2023-01-19T23:07:46.672Z,50.84
2023-01-19T23:12:49.539Z,51.04
2023-01-19T23:17:53.787Z,51.50
2023-01-19T23:22:56.515Z,51.56
2023-01-19T23:27:59.212Z,51.40
2023-01-19T23:33:03.396Z,51.91
2023-01-19T23:38:06.066Z,52.09
2023-01-19T23:43:08.793Z,52.57
2023-01-19T23:48:12.885Z,52.85
2023-01-19T23:53:15.612Z,53.12
2023-01-19T23:58:18.406Z,53.35
